Time;durP1;ratioP1;P1;durP2;ratioP2;P2;SDS_P1;SDS_P2;PMS_P1;PMS_P2;Temp;Humidity;BMP_temperature;BMP_pressure;BME280_temperature;BME280_humidity;BME280_pressure;Samples;Min_cycle;Max_cycle;Signal;HPM_P1;HPM_P2
2022/10/06 00:02:21;;;;;;;0.00;0.00;;;13.70;99.90;;;;;;5054044;28;20045;-80
2022/10/06 00:04:47;;;;;;;0.00;0.00;;;13.70;99.90;;;;;;5053739;28;20397;-80
2022/10/06 00:07:13;;;;;;;0.00;0.00;;;13.70;99.90;;;;;;5054428;28;20060;-80
2022/10/06 00:09:40;;;;;;;0.00;0.00;;;13.70;99.90;;;;;;5054158;28;20123;-80
2022/10/06 00:12:06;;;;;;;0.60;0.38;;;13.60;99.90;;;;;;5053948;28;20041;-80
2022/10/06 00:14:32;;;;;;;0.00;0.00;;;13.60;99.90;;;;;;5053408;28;20488;-80
2022/10/06 00:16:57;;;;;;;0.00;0.00;;;13.60;99.90;;;;;;5054352;28;20052;-80
2022/10/06 00:19:23;;;;;;;0.00;0.00;;;13.60;99.90;;;;;;5037344;28;20508;-80
2022/10/06 00:21:49;;;;;;;0.00;0.00;;;13.70;99.90;;;;;;5036248;28;20053;-80
2022/10/06 00:24:15;;;;;;;0.00;0.00;;;13.50;99.90;;;;;;5053628;28;20041;-80
2022/10/06 00:26:41;;;;;;;22.02;1.13;;;13.50;99.90;;;;;;5053716;28;20041;-80
2022/10/06 00:29:06;;;;;;;0.00;0.00;;;13.50;99.90;;;;;;5053706;28;20048;-80
2022/10/06 00:31:33;;;;;;;0.00;0.00;;;13.50;99.90;;;;;;5036765;28;20144;-80
2022/10/06 00:33:58;;;;;;;0.00;0.00;;;13.50;99.90;;;;;;5053855;28;20049;-80
2022/10/06 00:36:24;;;;;;;0.00;0.00;;;13.40;99.90;;;;;;5053491;28;20053;-80
2022/10/06 00:38:50;;;;;;;0.00;0.00;;;13.40;99.90;;;;;;5036856;28;20053;-80
2022/10/06 00:41:17;;;;;;;0.00;0.00;;;13.40;99.90;;;;;;5037012;28;20052;-80
2022/10/06 00:43:52;;;;;;;0.00;0.00;;;13.40;99.90;;;;;;5053821;28;20045;-80
2022/10/06 00:46:31;;;;;;;0.00;0.00;;;13.40;99.90;;;;;;5053315;28;20057;-80
2022/10/06 00:49:16;;;;;;;0.00;0.00;;;13.40;99.90;;;;;;5036577;28;20474;-80
2022/10/06 00:51:50;;;;;;;0.00;0.00;;;13.30;99.90;;;;;;5036842;28;20132;-80
2022/10/06 00:54:16;;;;;;;0.00;0.00;;;13.30;99.90;;;;;;5053663;28;20048;-80
2022/10/06 00:56:42;;;;;;;0.10;0.00;;;13.20;99.90;;;;;;5053129;28;20088;-80
2022/10/06 00:59:13;;;;;;;0.00;0.00;;;13.30;99.90;;;;;;5053221;28;20186;-80
2022/10/06 01:01:42;;;;;;;0.00;0.00;;;13.20;99.90;;;;;;5053319;28;20045;-80
2022/10/06 01:04:11;;;;;;;0.00;0.00;;;13.20;99.90;;;;;;5036758;28;20053;-80
2022/10/06 01:06:50;;;;;;;0.00;0.00;;;13.20;99.90;;;;;;5036613;28;20057;-81
2022/10/06 01:09:17;;;;;;;0.08;0.03;;;13.10;99.90;;;;;;5053331;28;20083;-80
2022/10/06 01:11:46;;;;;;;0.00;0.00;;;13.10;99.90;;;;;;5053862;28;20088;-80
2022/10/06 01:14:12;;;;;;;0.00;0.00;;;13.10;99.90;;;;;;5053839;28;20423;-79
2022/10/06 01:16:41;;;;;;;0.00;0.00;;;13.10;99.90;;;;;;5054853;28;20473;-80
2022/10/06 01:19:19;;;;;;;0.00;0.00;;;13.00;99.90;;;;;;5038748;28;20063;-80
2022/10/06 01:21:48;;;;;;;3.35;0.17;;;13.00;99.90;;;;;;5036783;28;20094;-80
2022/10/06 01:24:16;;;;;;;2.60;1.08;;;12.90;99.90;;;;;;5036207;28;20049;-80
2022/10/06 01:26:47;;;;;;;0.47;0.22;;;13.00;99.90;;;;;;5036470;28;20132;-80
2022/10/06 01:29:13;;;;;;;0.00;0.00;;;12.90;99.90;;;;;;5036709;28;20064;-80
2022/10/06 01:31:38;;;;;;;0.00;0.00;;;12.90;99.90;;;;;;5035987;28;20045;-80
2022/10/06 01:34:04;;;;;;;0.52;0.15;;;12.90;99.90;;;;;;5055067;28;20037;-80
2022/10/06 01:36:30;;;;;;;0.00;0.00;;;12.90;99.90;;;;;;5057047;28;20049;-80
2022/10/06 01:38:55;;;;;;;0.00;0.00;;;12.80;99.90;;;;;;5040038;28;20088;-80
2022/10/06 01:41:21;;;;;;;0.10;0.10;;;12.80;99.90;;;;;;5056635;28;20080;-80
2022/10/06 01:43:47;;;;;;;0.00;0.00;;;12.70;99.90;;;;;;5056653;28;20142;-80
2022/10/06 01:46:13;;;;;;;0.00;0.00;;;12.70;99.90;;;;;;5055867;28;20053;-80
2022/10/06 01:48:39;;;;;;;0.00;0.00;;;12.70;99.90;;;;;;5039899;28;20500;-80
2022/10/06 01:51:07;;;;;;;0.00;0.00;;;12.70;99.90;;;;;;5040202;28;20053;-80
2022/10/06 01:53:33;;;;;;;0.00;0.00;;;12.70;99.90;;;;;;5057316;28;20060;-80
2022/10/06 01:55:59;;;;;;;0.00;0.00;;;12.60;99.90;;;;;;5040059;28;20440;-80
2022/10/06 01:58:24;;;;;;;0.00;0.00;;;12.60;99.90;;;;;;5056228;28;20052;-80
2022/10/06 02:00:50;;;;;;;0.00;0.00;;;12.50;99.90;;;;;;5056218;28;20052;-80
2022/10/06 02:03:16;;;;;;;0.00;0.00;;;12.60;99.90;;;;;;5039888;28;20071;-80
2022/10/06 02:05:41;;;;;;;0.00;0.00;;;12.50;99.90;;;;;;5039547;28;20094;-80
2022/10/06 02:08:08;;;;;;;0.00;0.00;;;12.40;99.90;;;;;;5040213;28;20053;-80
2022/10/06 02:10:34;;;;;;;0.00;0.00;;;12.50;99.90;;;;;;5056087;28;20036;-80
2022/10/06 02:13:00;;;;;;;0.00;0.00;;;12.50;99.90;;;;;;5039556;28;20048;-81
2022/10/06 02:15:27;;;;;;;0.00;0.00;;;12.40;99.90;;;;;;5039547;28;20052;-81
2022/10/06 02:17:53;;;;;;;0.00;0.00;;;12.50;99.90;;;;;;5055949;28;20532;-80
2022/10/06 02:20:19;;;;;;;0.75;0.15;;;12.40;99.90;;;;;;5039316;28;20049;-80
2022/10/06 02:22:44;;;;;;;0.32;0.20;;;12.40;99.90;;;;;;5039318;28;20139;-80
2022/10/06 02:25:13;;;;;;;0.00;0.00;;;12.40;99.90;;;;;;5055671;28;20037;-80
2022/10/06 02:27:39;;;;;;;0.00;0.00;;;12.40;99.90;;;;;;5055816;28;20043;-81
2022/10/06 02:30:06;;;;;;;0.10;0.10;;;12.40;99.90;;;;;;5039078;28;20041;-81
2022/10/06 02:32:38;;;;;;;0.00;0.00;;;12.40;99.90;;;;;;5038987;28;20056;-81
2022/10/06 02:35:05;;;;;;;0.20;0.20;;;12.40;99.90;;;;;;5056264;28;20051;-81
2022/10/06 02:37:31;;;;;;;0.00;0.00;;;12.40;99.90;;;;;;5039371;28;20131;-81
2022/10/06 02:39:57;;;;;;;0.00;0.00;;;12.40;99.90;;;;;;5055711;28;20049;-80
2022/10/06 02:42:22;;;;;;;0.15;0.15;;;12.40;99.90;;;;;;5038763;28;20504;-81
2022/10/06 02:44:50;;;;;;;0.10;0.10;;;12.40;99.90;;;;;;5054484;28;20447;-81
2022/10/06 02:47:16;;;;;;;0.00;0.00;;;12.40;99.90;;;;;;5055223;28;20053;-81
2022/10/06 02:49:42;;;;;;;0.00;0.00;;;12.30;99.90;;;;;;5055340;28;20053;-81
2022/10/06 02:52:07;;;;;;;0.00;0.00;;;12.40;99.90;;;;;;5055565;28;20041;-81
2022/10/06 02:54:35;;;;;;;0.00;0.00;;;12.40;99.90;;;;;;5055418;28;20041;-81
2022/10/06 02:57:00;;;;;;;0.00;0.00;;;12.40;99.90;;;;;;5038863;28;20044;-80
2022/10/06 02:59:26;;;;;;;0.15;0.15;;;12.40;99.90;;;;;;5039421;28;20049;-81
2022/10/06 03:01:52;;;;;;;0.00;0.00;;;12.30;99.90;;;;;;5055703;28;20041;-81
2022/10/06 03:04:17;;;;;;;0.00;0.00;;;12.30;99.90;;;;;;5038828;28;20068;-81
2022/10/06 03:06:43;;;;;;;0.00;0.00;;;12.30;99.90;;;;;;5039701;28;20369;-80
2022/10/06 03:09:09;;;;;;;0.00;0.00;;;12.20;99.90;;;;;;5059592;28;20132;-80
2022/10/06 03:11:38;;;;;;;0.17;0.05;;;12.20;99.90;;;;;;5042803;28;20149;-81
2022/10/06 03:14:04;;;;;;;0.00;0.00;;;12.20;99.90;;;;;;5039656;28;20116;-81
2022/10/06 03:16:37;;;;;;;0.00;0.00;;;12.20;99.90;;;;;;5042955;28;20084;-80
2022/10/06 03:19:04;;;;;;;0.00;0.00;;;12.10;99.90;;;;;;5059514;28;20049;-81
2022/10/06 03:21:32;;;;;;;0.00;0.00;;;12.10;99.90;;;;;;5058951;28;20045;-81
2022/10/06 03:23:59;;;;;;;0.00;0.00;;;12.10;99.90;;;;;;5058408;28;20082;-81
2022/10/06 03:26:27;;;;;;;0.30;0.30;;;12.10;99.90;;;;;;5041105;28;20452;-81
2022/10/06 03:28:53;;;;;;;0.00;0.00;;;12.00;99.90;;;;;;5056719;28;20056;-81
2022/10/06 03:31:19;;;;;;;0.00;0.00;;;12.00;99.90;;;;;;5056062;28;20175;-81
2022/10/06 03:33:45;;;;;;;3.97;0.75;;;12.00;99.90;;;;;;5038220;28;20136;-81
2022/10/06 03:36:16;;;;;;;0.00;0.00;;;12.00;99.90;;;;;;5038435;28;20131;-81
2022/10/06 03:38:42;;;;;;;0.00;0.00;;;12.00;99.90;;;;;;5054845;28;20041;-81
2022/10/06 03:41:23;;;;;;;0.00;0.00;;;12.00;99.90;;;;;;5054819;28;20178;-81
2022/10/06 03:43:51;;;;;;;0.00;0.00;;;11.90;99.90;;;;;;5038239;28;20476;-81
2022/10/06 03:46:19;;;;;;;0.00;0.00;;;11.90;99.90;;;;;;5054161;28;20493;-81
2022/10/06 03:48:46;;;;;;;0.00;0.00;;;11.90;99.90;;;;;;5054105;28;20037;-81
2022/10/06 03:51:17;;;;;;;5.15;0.98;;;11.90;99.90;;;;;;5037568;28;20139;-81
2022/10/06 03:53:44;;;;;;;0.00;0.00;;;11.90;99.90;;;;;;5054343;28;20075;-81
2022/10/06 03:56:30;;;;;;;0.00;0.00;;;11.80;99.90;;;;;;5054052;28;20052;-80
2022/10/06 03:59:01;;;;;;;0.00;0.00;;;11.80;99.90;;;;;;5037525;28;20443;-80
2022/10/06 04:01:29;;;;;;;0.05;0.05;;;11.80;99.90;;;;;;5054258;28;20501;-81
2022/10/06 04:03:57;;;;;;;0.00;0.00;;;11.80;99.90;;;;;;5053660;28;20063;-81
2022/10/06 04:06:24;;;;;;;0.05;0.05;;;11.70;99.90;;;;;;5036932;28;20165;-80
2022/10/06 04:08:51;;;;;;;0.50;0.17;;;11.70;99.90;;;;;;5037240;28;20136;-81
2022/10/06 04:11:19;;;;;;;0.43;0.15;;;11.70;99.90;;;;;;5037268;28;20463;-81
2022/10/06 04:13:45;;;;;;;0.00;0.00;;;11.60;99.90;;;;;;5054209;28;20045;-81
2022/10/06 04:16:18;;;;;;;0.25;0.25;;;11.60;99.90;;;;;;5037104;28;20045;-81
2022/10/06 04:18:45;;;;;;;0.00;0.00;;;11.60;99.90;;;;;;5053361;28;20511;-81
2022/10/06 04:21:12;;;;;;;0.00;0.00;;;11.60;99.90;;;;;;5053655;28;20427;-80
2022/10/06 04:23:38;;;;;;;0.20;0.20;;;11.50;99.90;;;;;;5036985;28;20044;-81
2022/10/06 04:26:13;;;;;;;0.00;0.00;;;11.50;99.90;;;;;;5036776;28;20415;-81
2022/10/06 04:28:40;;;;;;;0.00;0.00;;;11.50;99.90;;;;;;5053320;28;20052;-81
2022/10/06 04:31:16;;;;;;;0.00;0.00;;;11.50;99.90;;;;;;5053607;28;20056;-81
2022/10/06 04:33:45;;;;;;;0.00;0.00;;;11.40;99.90;;;;;;5053476;28;20041;-81
2022/10/06 04:36:14;;;;;;;0.00;0.00;;;11.50;99.90;;;;;;5053882;28;20102;-81
2022/10/06 04:38:40;;;;;;;0.00;0.00;;;11.40;99.90;;;;;;5053487;28;20127;-81
2022/10/06 04:41:09;;;;;;;0.00;0.00;;;11.40;99.90;;;;;;5053198;28;20500;-81
2022/10/06 04:43:35;;;;;;;6.82;0.30;;;11.40;99.90;;;;;;5053283;28;20109;-81
2022/10/06 04:46:01;;;;;;;0.00;0.00;;;11.30;99.90;;;;;;5053071;28;20102;-81
2022/10/06 04:48:28;;;;;;;0.17;0.17;;;11.30;99.90;;;;;;5037051;28;20056;-81
2022/10/06 04:51:06;;;;;;;0.00;0.00;;;11.30;99.90;;;;;;5037411;28;20049;-81
2022/10/06 04:53:32;;;;;;;0.17;0.17;;;11.30;99.90;;;;;;5053779;28;20123;-81
2022/10/06 04:56:04;;;;;;;0.00;0.00;;;11.30;99.90;;;;;;5053012;28;20128;-80
2022/10/06 04:58:32;;;;;;;0.00;0.00;;;11.30;99.90;;;;;;5044165;28;20045;-80
2022/10/06 05:00:59;;;;;;;0.00;0.00;;;11.30;99.90;;;;;;5042710;28;20040;-81
2022/10/06 05:03:25;;;;;;;0.00;0.00;;;11.30;99.90;;;;;;5041790;28;20045;-81
2022/10/06 05:05:51;;;;;;;0.00;0.00;;;11.20;99.90;;;;;;5040328;28;20079;-80
2022/10/06 05:08:16;;;;;;;0.00;0.00;;;11.20;99.90;;;;;;5038605;28;20405;-81
2022/10/06 05:10:42;;;;;;;0.00;0.00;;;11.20;99.90;;;;;;5053207;28;20049;-81
2022/10/06 05:13:11;;;;;;;0.00;0.00;;;11.20;99.90;;;;;;5053024;28;20049;-81
2022/10/06 05:15:38;;;;;;;0.22;0.22;;;11.10;99.90;;;;;;5036338;28;20048;-81
2022/10/06 05:18:04;;;;;;;0.00;0.00;;;11.10;99.90;;;;;;5036306;28;20052;-81
2022/10/06 05:20:29;;;;;;;0.00;0.00;;;11.10;99.90;;;;;;5052905;28;20401;-81
2022/10/06 05:22:55;;;;;;;0.00;0.00;;;11.00;99.90;;;;;;5052481;28;20056;-81
2022/10/06 05:25:20;;;;;;;0.00;0.00;;;11.10;99.90;;;;;;5052012;28;20045;-81
2022/10/06 05:27:46;;;;;;;0.35;0.35;;;11.00;99.90;;;;;;5036216;28;20064;-81
2022/10/06 05:30:12;;;;;;;0.00;0.00;;;11.00;99.90;;;;;;5036492;28;20285;-81
2022/10/06 05:32:37;;;;;;;0.00;0.00;;;11.00;99.90;;;;;;5036247;28;20500;-80
2022/10/06 05:35:03;;;;;;;0.00;0.00;;;11.00;99.90;;;;;;5036392;28;20037;-81
2022/10/06 05:37:29;;;;;;;0.00;0.00;;;11.00;99.90;;;;;;5052193;28;20794;-81
2022/10/06 05:39:54;;;;;;;0.00;0.00;;;10.90;99.90;;;;;;5036303;28;20047;-81
2022/10/06 05:42:20;;;;;;;0.00;0.00;;;11.00;99.90;;;;;;5052661;28;20105;-81
2022/10/06 05:44:46;;;;;;;0.00;0.00;;;10.90;99.90;;;;;;5036124;28;20045;-81
2022/10/06 05:47:11;;;;;;;0.00;0.00;;;10.90;99.90;;;;;;5052194;28;20132;-81
2022/10/06 05:49:37;;;;;;;0.30;0.30;;;10.90;99.90;;;;;;5036173;28;20091;-81
2022/10/06 05:52:02;;;;;;;0.17;0.08;;;10.90;99.90;;;;;;5035769;28;20053;-81
2022/10/06 05:54:28;;;;;;;0.00;0.00;;;10.90;99.90;;;;;;5052247;28;20053;-81
2022/10/06 05:56:53;;;;;;;0.00;0.00;;;10.90;99.90;;;;;;5035666;28;20056;-81
2022/10/06 05:59:19;;;;;;;0.57;0.55;;;10.90;99.90;;;;;;5036091;28;20048;-82
2022/10/06 06:01:45;;;;;;;0.00;0.00;;;10.80;99.90;;;;;;5036204;28;20049;-81
2022/10/06 06:04:12;;;;;;;0.00;0.00;;;10.90;99.90;;;;;;5052743;28;20480;-82
2022/10/06 06:06:43;;;;;;;0.00;0.00;;;10.90;99.90;;;;;;5036100;28;20052;-81
2022/10/06 06:09:10;;;;;;;0.43;0.38;;;10.80;99.90;;;;;;5035947;28;20049;-82
2022/10/06 06:11:38;;;;;;;1.08;0.47;;;10.80;99.90;;;;;;5035633;28;20053;-81
2022/10/06 06:14:06;;;;;;;0.00;0.00;;;10.80;99.90;;;;;;5035599;28;20048;-81
2022/10/06 06:16:34;;;;;;;0.00;0.00;;;10.90;99.90;;;;;;5035696;28;20054;-80
2022/10/06 06:19:00;;;;;;;0.00;0.00;;;10.80;99.90;;;;;;5035756;28;20049;-81
2022/10/06 06:21:27;;;;;;;0.08;0.08;;;10.90;99.90;;;;;;5038541;28;20053;-81
2022/10/06 06:23:53;;;;;;;0.00;0.00;;;10.90;99.90;;;;;;5039981;28;20063;-81
2022/10/06 06:26:24;;;;;;;0.00;0.00;;;10.90;99.90;;;;;;5055474;28;20370;-81
2022/10/06 06:28:51;;;;;;;0.00;0.00;;;10.90;99.90;;;;;;5056046;28;20124;-81
2022/10/06 06:31:20;;;;;;;0.00;0.00;;;10.90;99.90;;;;;;5055374;28;20140;-82
2022/10/06 06:33:47;;;;;;;0.00;0.00;;;10.90;99.90;;;;;;5039234;28;20069;-82
2022/10/06 06:36:19;;;;;;;0.00;0.00;;;10.90;99.90;;;;;;5055232;28;20501;-81
2022/10/06 06:38:48;;;;;;;0.17;0.13;;;11.00;99.90;;;;;;5039846;28;20484;-81
2022/10/06 06:41:16;;;;;;;0.00;0.00;;;11.00;99.90;;;;;;5039192;28;20068;-81
2022/10/06 06:43:42;;;;;;;0.00;0.00;;;11.10;99.90;;;;;;5044565;28;20049;-81
2022/10/06 06:46:08;;;;;;;0.00;0.00;;;11.20;99.90;;;;;;5069056;28;20118;-81
2022/10/06 06:48:36;;;;;;;0.10;0.00;;;11.10;99.90;;;;;;5067114;28;20485;-81
2022/10/06 06:51:03;;;;;;;1.27;0.32;;;11.20;99.90;;;;;;5039757;28;20052;-82
2022/10/06 06:53:29;;;;;;;0.00;0.00;;;11.10;99.90;;;;;;5056078;28;20369;-81
2022/10/06 06:55:54;;;;;;;0.00;0.00;;;11.20;99.90;;;;;;5055267;28;20045;-81
2022/10/06 06:58:20;;;;;;;0.00;0.00;;;11.20;99.90;;;;;;5039284;28;20052;-81
2022/10/06 07:00:47;;;;;;;0.00;0.00;;;11.30;99.90;;;;;;5038453;28;20052;-81
2022/10/06 07:03:18;;;;;;;0.00;0.00;;;11.30;99.90;;;;;;5038570;28;20075;-81
2022/10/06 07:05:46;;;;;;;3.10;0.55;;;11.50;99.90;;;;;;5055048;28;20120;-82
2022/10/06 07:08:14;;;;;;;0.00;0.00;;;11.50;99.90;;;;;;5038644;28;20045;-82
2022/10/06 07:10:41;;;;;;;0.13;0.05;;;11.60;99.90;;;;;;5038380;28;20512;-81
2022/10/06 07:13:07;;;;;;;0.13;0.13;;;11.60;99.90;;;;;;5054582;28;20060;-82
2022/10/06 07:26:34;;;;;;;0.00;0.00;;;11.90;99.90;;;;;;5055115;28;20071;-81
2022/10/06 07:29:00;;;;;;;0.00;0.00;;;12.00;99.90;;;;;;5054815;28;20473;-81
2022/10/06 07:31:30;;;;;;;0.10;0.10;;;12.00;99.90;;;;;;5037659;28;20084;-81
2022/10/06 07:33:56;;;;;;;0.00;0.00;;;12.00;99.90;;;;;;5054763;28;20044;-81
2022/10/06 07:36:21;;;;;;;0.10;0.10;;;12.10;99.90;;;;;;5054567;28;20055;-81
2022/10/06 07:38:47;;;;;;;0.03;0.03;;;12.10;99.90;;;;;;5054468;28;20076;-81
2022/10/06 07:41:14;;;;;;;0.00;0.00;;;12.10;99.90;;;;;;5054710;28;20053;-81
2022/10/06 07:43:39;;;;;;;0.00;0.00;;;12.20;99.90;;;;;;5054750;28;20045;-81
2022/10/06 07:46:10;;;;;;;0.00;0.00;;;12.30;99.90;;;;;;5053972;28;20053;-82
2022/10/06 07:48:37;;;;;;;0.00;0.00;;;12.40;99.90;;;;;;5037695;28;20404;-83
2022/10/06 07:51:05;;;;;;;0.00;0.00;;;12.40;99.90;;;;;;5054182;28;20485;-81
2022/10/06 07:53:32;;;;;;;0.00;0.00;;;12.50;99.90;;;;;;5054029;28;20049;-80
2022/10/06 07:56:06;;;;;;;0.00;0.00;;;12.60;99.90;;;;;;5052891;28;20455;-81
2022/10/06 07:58:32;;;;;;;0.00;0.00;;;12.70;99.90;;;;;;5054067;28;20374;-81
2022/10/06 08:01:09;;;;;;;0.10;0.00;;;12.70;99.90;;;;;;5053860;28;20041;-81
2022/10/06 08:03:39;;;;;;;1.45;0.05;;;12.80;99.90;;;;;;5054450;28;20131;-81
2022/10/06 08:06:11;;;;;;;0.00;0.00;;;12.90;99.90;;;;;;5037165;28;20063;-81
2022/10/06 08:08:37;;;;;;;0.00;0.00;;;13.00;99.90;;;;;;5037363;28;20088;-81
2022/10/06 08:11:04;;;;;;;0.00;0.00;;;13.00;99.90;;;;;;5053878;28;20088;-81
2022/10/06 08:13:32;;;;;;;0.00;0.00;;;13.00;99.90;;;;;;5054005;28;20049;-81
2022/10/06 08:16:28;;;;;;;0.00;0.00;;;13.10;99.90;;;;;;5037588;28;20076;-81
2022/10/06 08:18:56;;;;;;;0.00;0.00;;;13.20;99.90;;;;;;5036157;28;20067;-81
2022/10/06 08:21:30;;;;;;;0.00;0.00;;;13.30;99.90;;;;;;5037212;28;20056;-81
2022/10/06 08:23:57;;;;;;;0.00;0.00;;;13.30;99.90;;;;;;5036970;28;20113;-81
2022/10/06 08:26:25;;;;;;;0.00;0.00;;;13.40;99.90;;;;;;5036658;28;20477;-81
2022/10/06 08:28:52;;;;;;;0.00;0.00;;;13.60;99.90;;;;;;5037316;28;20515;-81
2022/10/06 08:31:20;;;;;;;0.00;0.00;;;13.80;99.90;;;;;;5036660;28;20048;-82
2022/10/06 08:33:46;;;;;;;0.10;0.10;;;13.90;99.90;;;;;;5056290;28;20056;-81
2022/10/06 08:36:17;;;;;;;0.00;0.00;;;14.20;99.90;;;;;;5047488;28;20089;-81
2022/10/06 08:38:48;;;;;;;0.20;0.20;;;14.40;99.90;;;;;;5045568;28;20045;-81
2022/10/06 08:41:35;;;;;;;0.00;0.00;;;14.50;99.90;;;;;;5038670;28;20128;-81
2022/10/06 08:44:19;;;;;;;0.10;0.10;;;14.70;99.90;;;;;;5036018;28;20492;-82
2022/10/06 08:46:59;;;;;;;0.00;0.00;;;14.90;99.90;;;;;;5036541;28;20090;-82
2022/10/06 08:49:32;;;;;;;0.00;0.00;;;15.10;99.90;;;;;;5053801;28;20049;-82
2022/10/06 08:51:58;;;;;;;1.08;0.30;;;15.30;99.90;;;;;;5036730;28;20067;-81
2022/10/06 08:54:32;;;;;;;0.00;0.00;;;15.40;99.90;;;;;;5053211;28;20049;-80
2022/10/06 08:57:07;;;;;;;0.00;0.00;;;15.50;99.90;;;;;;5036709;28;20144;-80
2022/10/06 08:59:34;;;;;;;;;;;15.60;99.90;;;;;;5053534;28;20412;-81
2022/10/06 09:02:04;;;;;;;2.65;0.63;;;15.60;99.90;;;;;;5053481;28;19991;-81
2022/10/06 09:04:32;;;;;;;1.55;0.22;;;15.70;99.90;;;;;;5053754;28;20053;-81
2022/10/06 09:07:14;;;;;;;0.28;0.28;;;15.90;99.90;;;;;;5053226;28;20045;-81
2022/10/06 09:09:50;;;;;;;0.00;0.00;;;16.00;99.90;;;;;;5036696;28;20053;-81
2022/10/06 09:12:50;;;;;;;0.00;0.00;;;16.00;99.90;;;;;;5052765;28;20053;-80
2022/10/06 09:15:29;;;;;;;0.00;0.00;;;16.10;99.90;;;;;;5053109;28;20045;-80
2022/10/06 09:18:07;;;;;;;0.00;0.00;;;16.20;99.90;;;;;;5036363;28;20060;-81
2022/10/06 09:20:38;;;;;;;0.00;0.00;;;16.20;99.90;;;;;;5036675;28;20041;-81
2022/10/06 09:23:09;;;;;;;0.00;0.00;;;16.40;99.90;;;;;;5034975;28;20508;-82
2022/10/06 09:25:36;;;;;;;5.47;0.85;;;16.50;99.90;;;;;;5035148;28;20045;-81
2022/10/06 09:28:07;;;;;;;0.00;0.00;;;16.70;99.90;;;;;;5052587;28;20053;-81
2022/10/06 09:30:32;;;;;;;0.00;0.00;;;16.70;99.90;;;;;;5052598;28;20135;-81
2022/10/06 09:33:01;;;;;;;0.00;0.00;;;16.80;99.90;;;;;;5052822;28;20441;-81
2022/10/06 09:35:29;;;;;;;0.00;0.00;;;16.90;99.90;;;;;;5052227;28;20055;-81
2022/10/06 09:37:57;;;;;;;0.22;0.22;;;16.80;99.90;;;;;;5052700;28;20045;-81
2022/10/06 09:40:35;;;;;;;0.05;0.03;;;16.80;99.90;;;;;;5052824;28;20151;-81
2022/10/06 09:43:04;;;;;;;0.00;0.00;;;16.80;99.90;;;;;;5053271;28;20443;-82
2022/10/06 09:45:31;;;;;;;0.00;0.00;;;16.80;99.90;;;;;;5035071;28;20496;-82
2022/10/06 09:48:20;;;;;;;1.02;0.55;;;16.70;99.90;;;;;;5053257;28;20077;-81
2022/10/06 09:51:08;;;;;;;0.08;0.00;;;16.70;99.90;;;;;;5052715;28;20485;-82
2022/10/06 09:53:34;;;;;;;0.10;0.10;;;16.70;99.90;;;;;;5035602;28;20527;-81
2022/10/06 09:56:03;;;;;;;0.00;0.00;;;16.80;99.90;;;;;;5039595;28;20436;-82
2022/10/06 09:58:38;;;;;;;0.57;0.13;;;16.80;99.90;;;;;;5055911;28;20535;-85
2022/10/06 10:01:06;;;;;;;0.08;0.00;;;17.00;99.90;;;;;;5056847;28;20053;-82
2022/10/06 10:03:50;;;;;;;0.00;0.00;;;16.90;99.90;;;;;;5056492;28;20055;-82
2022/10/06 10:06:28;;;;;;;0.00;0.00;;;16.90;99.90;;;;;;5055928;28;20107;-81
2022/10/06 10:09:18;;;;;;;0.00;0.00;;;16.80;99.90;;;;;;5039009;28;20044;-82
2022/10/06 10:14:36;;;;;;;;;;;17.10;99.90;;;;;;5056099;28;20084;-81
2022/10/06 10:17:18;;;;;;;0.00;0.00;;;17.00;99.90;;;;;;5055384;28;19920;-81
2022/10/06 10:19:52;;;;;;;0.00;0.00;;;16.80;99.90;;;;;;5056445;28;20084;-81
2022/10/06 10:22:26;;;;;;;0.00;0.00;;;16.80;99.90;;;;;;5039502;28;20070;-81
2022/10/06 10:25:00;;;;;;;1.13;0.30;;;16.80;99.90;;;;;;5038820;28;20404;-81
2022/10/06 10:27:43;;;;;;;0.15;0.15;;;16.70;99.90;;;;;;5056440;28;20049;-81
2022/10/06 10:30:13;;;;;;;0.00;0.00;;;16.50;99.90;;;;;;5039793;28;20061;-81
2022/10/06 10:32:48;;;;;;;0.10;0.10;;;16.50;99.90;;;;;;5039898;28;20082;-81
2022/10/06 10:35:23;;;;;;;0.47;0.47;;;16.80;99.90;;;;;;5045551;28;20476;-81
2022/10/06 10:38:09;;;;;;;0.43;0.20;;;17.10;99.90;;;;;;5079781;28;20060;-81
2022/10/06 10:40:50;;;;;;;0.08;0.08;;;17.30;99.90;;;;;;5039477;28;20480;-81
2022/10/06 10:43:37;;;;;;;0.00;0.00;;;17.70;99.90;;;;;;5039075;28;20435;-81
2022/10/06 10:46:10;;;;;;;0.00;0.00;;;18.00;99.90;;;;;;5055490;28;20163;-81
2022/10/06 10:48:44;;;;;;;0.40;0.10;;;18.00;99.90;;;;;;5039087;28;20092;-81
2022/10/06 10:51:27;;;;;;;0.00;0.00;;;17.60;99.90;;;;;;5039054;28;20071;-81
2022/10/06 10:54:08;;;;;;;0.00;0.00;;;17.40;99.90;;;;;;5038621;28;20447;-81
2022/10/06 10:56:33;;;;;;;0.00;0.00;;;17.00;99.90;;;;;;5039081;28;20392;-81
2022/10/06 10:59:12;;;;;;;0.00;0.00;;;16.80;99.90;;;;;;5039583;28;20106;-81
2022/10/06 11:01:46;;;;;;;0.00;0.00;;;16.60;99.90;;;;;;5038646;28;20175;-81
2022/10/06 11:04:13;;;;;;;0.65;0.22;;;16.40;99.90;;;;;;5055228;28;20056;-82
2022/10/06 11:06:54;;;;;;;1.75;0.28;;;16.20;99.90;;;;;;5053872;28;20041;-82
2022/10/06 11:09:47;;;;;;;2.63;0.47;;;16.30;99.90;;;;;;5055653;28;20053;-81
2022/10/06 11:12:37;;;;;;;0.32;0.32;;;16.30;99.90;;;;;;5038517;28;20079;-81
2022/10/06 11:15:34;;;;;;;0.00;0.00;;;16.30;99.90;;;;;;5055240;28;20110;-81
2022/10/06 11:18:26;;;;;;;0.00;0.00;;;16.10;99.90;;;;;;5055187;28;20106;-81
2022/10/06 11:21:13;;;;;;;1.25;0.05;;;16.40;99.90;;;;;;5037795;28;20134;-81
2022/10/06 11:23:47;;;;;;;0.00;0.00;;;16.90;99.90;;;;;;5038653;28;20041;-81
2022/10/06 11:26:31;;;;;;;0.00;0.00;;;17.20;99.90;;;;;;5038470;28;20045;-81
2022/10/06 11:29:14;;;;;;;0.00;0.00;;;17.60;99.90;;;;;;5038202;28;20049;-81
2022/10/06 11:31:50;;;;;;;0.00;0.00;;;17.80;99.90;;;;;;5038513;28;20052;-81
2022/10/06 11:34:15;;;;;;;0.00;0.00;;;18.00;99.90;;;;;;5054931;28;20132;-81
2022/10/06 11:37:04;;;;;;;0.00;0.00;;;18.00;99.90;;;;;;5054330;28;20080;-81
2022/10/06 11:40:01;;;;;;;0.00;0.00;;;18.00;99.90;;;;;;5038100;28;20052;-81
2022/10/06 11:42:57;;;;;;;0.08;0.08;;;18.10;99.90;;;;;;5054577;28;20037;-81
2022/10/06 11:45:42;;;;;;;0.00;0.00;;;18.40;99.90;;;;;;5054143;28;20049;-81
2022/10/06 11:48:20;;;;;;;;;;;18.20;99.90;;;;;;5038089;28;20123;-82
2022/10/06 11:50:50;;;;;;;0.00;0.00;;;18.30;99.80;;;;;;5054538;28;19974;-82
2022/10/06 11:53:33;;;;;;;0.20;0.20;;;18.30;99.90;;;;;;5054240;28;20099;-81
2022/10/06 11:56:17;;;;;;;0.00;0.00;;;18.50;99.90;;;;;;5054332;28;20049;-81
2022/10/06 11:58:55;;;;;;;0.13;0.13;;;18.70;99.90;;;;;;5037590;28;20088;-82
2022/10/06 12:01:29;;;;;;;0.00;0.00;;;18.80;99.90;;;;;;5037353;28;20104;-81
2022/10/06 12:04:04;;;;;;;;;;;19.00;99.60;;;;;;5053003;28;20049;-85
2022/10/06 12:06:44;;;;;;;0.00;0.00;;;19.30;99.30;;;;;;5036272;28;19921;-81
2022/10/06 12:09:29;;;;;;;0.00;0.00;;;19.60;98.10;;;;;;5053717;28;20057;-82
2022/10/06 12:12:14;;;;;;;0.00;0.00;;;19.70;98.00;;;;;;5054254;28;20496;-81
2022/10/06 12:14:45;;;;;;;0.10;0.10;;;20.10;97.50;;;;;;5053840;28;20416;-81
2022/10/06 12:17:24;;;;;;;0.10;0.00;;;20.40;96.50;;;;;;5037046;28;20068;-81
2022/10/06 12:19:57;;;;;;;0.00;0.00;;;20.50;95.10;;;;;;5037770;28;20049;-80
2022/10/06 12:22:26;;;;;;;0.20;0.08;;;20.50;94.90;;;;;;5037227;28;20461;-80
2022/10/06 12:25:02;;;;;;;0.00;0.00;;;20.20;94.10;;;;;;5037132;28;20052;-81
2022/10/06 12:27:41;;;;;;;0.00;0.00;;;19.70;94.50;;;;;;5037447;28;20045;-80
2022/10/06 12:30:21;;;;;;;1.17;0.38;;;19.20;95.80;;;;;;5037288;28;20486;-80
2022/10/06 12:32:58;;;;;;;0.52;0.47;;;19.00;97.60;;;;;;5036949;28;20065;-81
2022/10/06 12:35:35;;;;;;;3.30;0.47;;;19.00;98.50;;;;;;5042317;28;20041;-82
2022/10/06 12:38:32;;;;;;;0.00;0.00;;;19.30;98.60;;;;;;5068283;28;20037;-83
2022/10/06 12:41:00;;;;;;;0.85;0.20;;;19.40;96.80;;;;;;5063884;28;20084;-83
2022/10/06 12:43:32;;;;;;;0.00;0.00;;;19.40;96.20;;;;;;5053388;28;20060;-82
2022/10/06 12:45:57;;;;;;;1.45;0.32;;;19.30;94.90;;;;;;5036432;28;20136;-83
2022/10/06 12:48:54;;;;;;;0.00;0.00;;;19.20;94.60;;;;;;5053132;28;20071;-84
2022/10/06 12:51:37;;;;;;;0.17;0.17;;;19.20;95.40;;;;;;5053491;28;20191;-83
2022/10/06 12:54:34;;;;;;;0.00;0.00;;;19.10;94.20;;;;;;5053275;28;20056;-84
2022/10/06 12:57:13;;;;;;;0.20;0.20;;;19.10;95.30;;;;;;5036671;28;20060;-82
2022/10/06 12:59:39;;;;;;;0.00;0.00;;;19.20;93.90;;;;;;5053734;28;20128;-83
2022/10/06 13:02:13;;;;;;;0.00;0.00;;;19.10;94.80;;;;;;5036518;28;20131;-83
2022/10/06 13:05:09;;;;;;;0.00;0.00;;;19.10;94.40;;;;;;5036597;28;20049;-83
2022/10/06 13:07:57;;;;;;;0.00;0.00;;;19.20;95.60;;;;;;5053891;28;20474;-77
2022/10/06 13:10:23;;;;;;;0.03;0.03;;;19.20;94.50;;;;;;5053317;28;20110;-78
2022/10/06 13:12:51;;;;;;;0.00;0.00;;;19.10;93.80;;;;;;5036184;28;20056;-76
2022/10/06 13:15:30;;;;;;;0.10;0.10;;;19.00;93.30;;;;;;5052668;28;20049;-81
2022/10/06 13:18:03;;;;;;;0.00;0.00;;;19.00;93.10;;;;;;5036242;28;20061;-81
2022/10/06 13:20:52;;;;;;;0.00;0.00;;;18.90;93.80;;;;;;5052680;28;20485;-80
2022/10/06 13:23:25;;;;;;;0.00;0.00;;;18.90;93.60;;;;;;5053156;28;20048;-80